sensor_id;sensor_type;location;lat;lon;timestamp;pressure;altitude;pressure_sealevel;temperature;humidity
61324;BME280;47203;48.428;11.974;2023-04-08T00:00:08;96821.22;;;9.01;43.60
61324;BME280;47203;48.428;11.974;2023-04-08T00:02:14;96825.66;;;9.01;43.52
61324;BME280;47203;48.428;11.974;2023-04-08T00:04:19;96816.47;;;8.98;43.79
61324;BME280;47203;48.428;11.974;2023-04-08T00:06:24;96822.75;;;8.97;43.77
61324;BME280;47203;48.428;11.974;2023-04-08T00:08:31;96818.03;;;8.94;43.74
61324;BME280;47203;48.428;11.974;2023-04-08T00:10:36;96816.94;;;8.90;43.69
61324;BME280;47203;48.428;11.974;2023-04-08T00:12:41;96816.09;;;8.84;43.95
61324;BME280;47203;48.428;11.974;2023-04-08T00:14:46;96822.63;;;8.82;44.12
61324;BME280;47203;48.428;11.974;2023-04-08T00:16:51;96818.13;;;8.77;44.20
61324;BME280;47203;48.428;11.974;2023-04-08T00:18:56;96822.84;;;8.75;43.98
61324;BME280;47203;48.428;11.974;2023-04-08T00:21:01;96820.22;;;8.75;44.33
61324;BME280;47203;48.428;11.974;2023-04-08T00:23:05;96820.22;;;8.75;44.38
61324;BME280;47203;48.428;11.974;2023-04-08T00:25:13;96822.59;;;8.77;44.34
61324;BME280;47203;48.428;11.974;2023-04-08T00:27:18;96827.59;;;8.78;44.34
61324;BME280;47203;48.428;11.974;2023-04-08T00:29:23;96818.13;;;8.77;44.37
61324;BME280;47203;48.428;11.974;2023-04-08T00:31:27;96816.31;;;8.78;44.56
61324;BME280;47203;48.428;11.974;2023-04-08T00:33:32;96830.22;;;8.78;44.36
61324;BME280;47203;48.428;11.974;2023-04-08T00:35:37;96829.47;;;8.83;44.29
61324;BME280;47203;48.428;11.974;2023-04-08T00:37:42;96828.97;;;8.86;44.51
61324;BME280;47203;48.428;11.974;2023-04-08T00:39:48;96833.72;;;8.89;44.50
61324;BME280;47203;48.428;11.974;2023-04-08T00:41:57;96834.28;;;8.91;44.65
61324;BME280;47203;48.428;11.974;2023-04-08T00:44:03;96833.22;;;8.92;44.41
61324;BME280;47203;48.428;11.974;2023-04-08T00:46:08;96834.28;;;8.91;44.52
61324;BME280;47203;48.428;11.974;2023-04-08T00:48:13;96830.06;;;8.90;44.71
61324;BME280;47203;48.428;11.974;2023-04-08T00:50:18;96837.94;;;8.90;44.70
61324;BME280;47203;48.428;11.974;2023-04-08T00:52:23;96841.09;;;8.92;44.58
61324;BME280;47203;48.428;11.974;2023-04-08T00:54:29;96844.28;;;8.94;44.69
61324;BME280;47203;48.428;11.974;2023-04-08T00:56:34;96841.38;;;8.96;44.68
61324;BME280;47203;48.428;11.974;2023-04-08T00:58:42;96839.28;;;8.98;44.82
61324;BME280;47203;48.428;11.974;2023-04-08T01:00:52;96849.53;;;8.99;45.02
61324;BME280;47203;48.428;11.974;2023-04-08T01:03:05;96849.00;;;8.97;45.20
61324;BME280;47203;48.428;11.974;2023-04-08T01:05:17;96849.28;;;8.96;45.16
61324;BME280;47203;48.428;11.974;2023-04-08T01:07:27;96836.41;;;8.94;45.25
61324;BME280;47203;48.428;11.974;2023-04-08T01:09:37;96845.56;;;8.91;45.68
61324;BME280;47203;48.428;11.974;2023-04-08T01:11:43;96840.31;;;8.91;45.33
61324;BME280;47203;48.428;11.974;2023-04-08T01:13:53;96841.34;;;8.90;45.92
61324;BME280;47203;48.428;11.974;2023-04-08T01:15:58;96836.34;;;8.89;45.43
61324;BME280;47203;48.428;11.974;2023-04-08T01:18:06;96832.94;;;8.88;45.80
61324;BME280;47203;48.428;11.974;2023-04-08T01:20:12;96840.56;;;8.90;45.59
61324;BME280;47203;48.428;11.974;2023-04-08T01:22:24;96840.31;;;8.91;45.96
61324;BME280;47203;48.428;11.974;2023-04-08T01:24:35;96839.03;;;8.94;46.12
61324;BME280;47203;48.428;11.974;2023-04-08T01:26:46;96846.38;;;8.97;45.83
61324;BME280;47203;48.428;11.974;2023-04-08T01:28:52;96848.00;;;9.03;45.75
61324;BME280;47203;48.428;11.974;2023-04-08T01:31:01;96847.25;;;9.08;45.85
61324;BME280;47203;48.428;11.974;2023-04-08T01:33:09;96853.84;;;9.11;46.08
61324;BME280;47203;48.428;11.974;2023-04-08T01:35:15;96845.72;;;9.12;45.79
61324;BME280;47203;48.428;11.974;2023-04-08T01:37:21;96845.72;;;9.12;45.84
61324;BME280;47203;48.428;11.974;2023-04-08T01:39:28;96847.81;;;9.10;45.78
61324;BME280;47203;48.428;11.974;2023-04-08T01:41:35;96848.84;;;9.09;45.90
61324;BME280;47203;48.428;11.974;2023-04-08T01:43:43;96837.56;;;9.08;46.34
61324;BME280;47203;48.428;11.974;2023-04-08T01:45:50;96840.19;;;9.08;46.18
61324;BME280;47203;48.428;11.974;2023-04-08T01:48:00;96849.34;;;9.06;46.11
61324;BME280;47203;48.428;11.974;2023-04-08T01:50:07;96840.69;;;9.05;46.34
61324;BME280;47203;48.428;11.974;2023-04-08T01:52:13;96844.59;;;9.03;46.66
61324;BME280;47203;48.428;11.974;2023-04-08T01:54:20;96843.00;;;9.02;46.52
61324;BME280;47203;48.428;11.974;2023-04-08T01:56:27;96841.41;;;9.01;46.76
61324;BME280;47203;48.428;11.974;2023-04-08T01:58:37;96847.47;;;9.01;46.97
61324;BME280;47203;48.428;11.974;2023-04-08T02:00:46;96843.25;;;9.00;46.62
61324;BME280;47203;48.428;11.974;2023-04-08T02:02:52;96845.63;;;9.02;46.75
61324;BME280;47203;48.428;11.974;2023-04-08T02:04:58;96846.19;;;9.04;46.73
61324;BME280;47203;48.428;11.974;2023-04-08T02:07:03;96844.34;;;9.04;46.62
61324;BME280;47203;48.428;11.974;2023-04-08T02:09:08;96845.94;;;9.05;46.84
61324;BME280;47203;48.428;11.974;2023-04-08T02:11:13;96846.97;;;9.04;46.95
61324;BME280;47203;48.428;11.974;2023-04-08T02:13:18;96841.97;;;9.03;47.12
61324;BME280;47203;48.428;11.974;2023-04-08T02:15:25;96847.72;;;9.00;47.07
61324;BME280;47203;48.428;11.974;2023-04-08T02:17:43;96841.13;;;8.97;47.65
61324;BME280;47203;48.428;11.974;2023-04-08T02:19:57;96846.38;;;8.97;46.93
61324;BME280;47203;48.428;11.974;2023-04-08T02:22:06;96851.38;;;8.99;47.01
61324;BME280;47203;48.428;11.974;2023-04-08T02:24:15;96844.28;;;8.99;47.27
61324;BME280;47203;48.428;11.974;2023-04-08T02:26:21;96846.66;;;9.01;46.99
61324;BME280;47203;48.428;11.974;2023-04-08T02:28:31;96845.88;;;9.00;47.09
61324;BME280;47203;48.428;11.974;2023-04-08T02:30:41;96842.22;;;9.01;47.60
61324;BME280;47203;48.428;11.974;2023-04-08T02:32:51;96845.63;;;9.02;47.77
61324;BME280;47203;48.428;11.974;2023-04-08T02:34:58;96844.59;;;9.03;47.35
61324;BME280;47203;48.428;11.974;2023-04-08T02:37:04;96852.47;;;9.03;47.17
61324;BME280;47203;48.428;11.974;2023-04-08T02:39:09;96853.25;;;9.03;47.59
61324;BME280;47203;48.428;11.974;2023-04-08T02:41:14;96853.81;;;9.05;47.42
61324;BME280;47203;48.428;11.974;2023-04-08T02:43:19;96857.75;;;9.08;47.29
61324;BME280;47203;48.428;11.974;2023-04-08T02:45:30;96855.94;;;9.08;47.70
61324;BME280;47203;48.428;11.974;2023-04-08T02:47:35;96854.63;;;9.11;47.54
61324;BME280;47203;48.428;11.974;2023-04-08T02:49:43;96858.84;;;9.12;47.46
61324;BME280;47203;48.428;11.974;2023-04-08T02:51:48;96858.59;;;9.14;47.37
61324;BME280;47203;48.428;11.974;2023-04-08T02:53:53;96854.94;;;9.15;47.30
61324;BME280;47203;48.428;11.974;2023-04-08T02:55:57;96853.66;;;9.17;47.71
61324;BME280;47203;48.428;11.974;2023-04-08T02:58:02;96862.31;;;9.18;47.55
61324;BME280;47203;48.428;11.974;2023-04-08T03:00:09;96854.44;;;9.18;47.59
61324;BME280;47203;48.428;11.974;2023-04-08T03:02:14;96856.28;;;9.17;47.56
61324;BME280;47203;48.428;11.974;2023-04-08T03:04:19;96857.84;;;9.18;47.80
61324;BME280;47203;48.428;11.974;2023-04-08T03:06:26;96863.34;;;9.17;47.85
61324;BME280;47203;48.428;11.974;2023-04-08T03:08:32;96854.69;;;9.16;47.98
61324;BME280;47203;48.428;11.974;2023-04-08T03:10:37;96865.97;;;9.17;47.66
61324;BME280;47203;48.428;11.974;2023-04-08T03:12:42;96863.59;;;9.15;47.74
61324;BME280;47203;48.428;11.974;2023-04-08T03:14:47;96869.66;;;9.16;47.86
61324;BME280;47203;48.428;11.974;2023-04-08T03:16:51;96867.56;;;9.18;48.04
61324;BME280;47203;48.428;11.974;2023-04-08T03:18:56;96865.72;;;9.18;47.95
61324;BME280;47203;48.428;11.974;2023-04-08T03:21:01;96867.88;;;9.21;47.73
61324;BME280;47203;48.428;11.974;2023-04-08T03:23:09;96867.88;;;9.21;48.24
61324;BME280;47203;48.428;11.974;2023-04-08T03:25:14;96867.88;;;9.21;48.09
61324;BME280;47203;48.428;11.974;2023-04-08T03:27:19;96869.69;;;9.21;48.14
61324;BME280;47203;48.428;11.974;2023-04-08T03:29:24;96872.56;;;9.19;48.06
61324;BME280;47203;48.428;11.974;2023-04-08T03:31:28;96872.81;;;9.18;48.10
61324;BME280;47203;48.428;11.974;2023-04-08T03:33:33;96870.69;;;9.15;48.02
61324;BME280;47203;48.428;11.974;2023-04-08T03:35:38;96870.69;;;9.15;48.29
61324;BME280;47203;48.428;11.974;2023-04-08T03:37:43;96865.44;;;9.15;48.20
61324;BME280;47203;48.428;11.974;2023-04-08T03:39:52;96863.06;;;9.13;48.41
61324;BME280;47203;48.428;11.974;2023-04-08T03:41:57;96866.47;;;9.14;48.22
61324;BME280;47203;48.428;11.974;2023-04-08T03:44:04;96870.94;;;9.13;48.13
61324;BME280;47203;48.428;11.974;2023-04-08T03:46:08;96868.31;;;9.13;48.26
61324;BME280;47203;48.428;11.974;2023-04-08T03:48:13;96871.72;;;9.14;48.19
61324;BME280;47203;48.428;11.974;2023-04-08T03:50:18;96873.31;;;9.15;48.37
61324;BME280;47203;48.428;11.974;2023-04-08T03:52:24;96879.09;;;9.17;48.33
61324;BME280;47203;48.428;11.974;2023-04-08T03:54:28;96879.34;;;9.15;48.36
61324;BME280;47203;48.428;11.974;2023-04-08T03:56:36;96885.66;;;9.14;48.56
61324;BME280;47203;48.428;11.974;2023-04-08T03:58:41;96881.69;;;9.12;48.54
61324;BME280;47203;48.428;11.974;2023-04-08T04:00:45;96886.13;;;9.11;48.70
61324;BME280;47203;48.428;11.974;2023-04-08T04:02:50;96885.34;;;9.11;48.38
61324;BME280;47203;48.428;11.974;2023-04-08T04:04:57;96878.50;;;9.09;48.73
61324;BME280;47203;48.428;11.974;2023-04-08T04:07:02;96885.84;;;9.07;48.67
61324;BME280;47203;48.428;11.974;2023-04-08T04:09:07;96884.25;;;9.06;48.84
61324;BME280;47203;48.428;11.974;2023-04-08T04:11:12;96892.38;;;9.05;48.72
61324;BME280;47203;48.428;11.974;2023-04-08T04:13:19;96889.75;;;9.05;48.75
61324;BME280;47203;48.428;11.974;2023-04-08T04:15:24;96894.75;;;9.06;48.71
61324;BME280;47203;48.428;11.974;2023-04-08T04:17:29;96890.56;;;9.05;48.87
61324;BME280;47203;48.428;11.974;2023-04-08T04:19:33;96892.13;;;9.06;49.01
61324;BME280;47203;48.428;11.974;2023-04-08T04:21:38;96893.97;;;9.06;48.99
61324;BME280;47203;48.428;11.974;2023-04-08T04:23:43;96899.50;;;9.04;49.10
61324;BME280;47203;48.428;11.974;2023-04-08T04:25:51;96895.28;;;9.03;49.03
61324;BME280;47203;48.428;11.974;2023-04-08T04:27:56;96888.44;;;9.02;48.94
61324;BME280;47203;48.428;11.974;2023-04-08T04:30:06;96899.19;;;9.01;49.33
61324;BME280;47203;48.428;11.974;2023-04-08T04:32:11;96896.56;;;9.01;48.95
61324;BME280;47203;48.428;11.974;2023-04-08T04:34:16;96895.78;;;9.00;49.08
61324;BME280;47203;48.428;11.974;2023-04-08T04:36:21;96895.78;;;9.00;49.33
61324;BME280;47203;48.428;11.974;2023-04-08T04:38:25;96905.25;;;9.01;49.40
61324;BME280;47203;48.428;11.974;2023-04-08T04:40:30;96904.44;;;9.01;49.18
61324;BME280;47203;48.428;11.974;2023-04-08T04:42:35;96909.94;;;8.99;49.39
61324;BME280;47203;48.428;11.974;2023-04-08T04:44:40;96906.28;;;9.00;49.56
61324;BME280;47203;48.428;11.974;2023-04-08T04:46:48;96908.91;;;9.00;49.52
61324;BME280;47203;48.428;11.974;2023-04-08T04:48:52;96908.66;;;9.02;49.73
61324;BME280;47203;48.428;11.974;2023-04-08T04:50:58;96909.69;;;9.01;49.80
61324;BME280;47203;48.428;11.974;2023-04-08T04:53:04;96917.03;;;8.99;49.74
61324;BME280;47203;48.428;11.974;2023-04-08T04:55:09;96911.00;;;8.98;49.68
61324;BME280;47203;48.428;11.974;2023-04-08T04:57:14;96906.78;;;8.97;49.91
61324;BME280;47203;48.428;11.974;2023-04-08T04:59:18;96915.44;;;8.98;49.94
61324;BME280;47203;48.428;11.974;2023-04-08T05:01:23;96919.66;;;8.99;50.01
61324;BME280;47203;48.428;11.974;2023-04-08T05:03:32;96921.50;;;8.98;50.15
61324;BME280;47203;48.428;11.974;2023-04-08T05:05:37;96920.19;;;9.01;50.11
61324;BME280;47203;48.428;11.974;2023-04-08T05:07:42;96924.97;;;9.04;49.92
61324;BME280;47203;48.428;11.974;2023-04-08T05:09:47;96923.91;;;9.05;50.14
61324;BME280;47203;48.428;11.974;2023-04-08T05:11:51;96927.09;;;9.07;50.07
61324;BME280;47203;48.428;11.974;2023-04-08T05:13:56;96928.66;;;9.08;50.19
61324;BME280;47203;48.428;11.974;2023-04-08T05:16:01;96928.97;;;9.12;50.31
61324;BME280;47203;48.428;11.974;2023-04-08T05:18:06;96926.09;;;9.13;49.98
61324;BME280;47203;48.428;11.974;2023-04-08T05:20:13;96928.47;;;9.15;50.37
61324;BME280;47203;48.428;11.974;2023-04-08T05:22:18;96932.44;;;9.17;50.27
61324;BME280;47203;48.428;11.974;2023-04-08T05:24:23;96934.00;;;9.18;50.35
61324;BME280;47203;48.428;11.974;2023-04-08T05:26:28;96932.72;;;9.21;50.55
61324;BME280;47203;48.428;11.974;2023-04-08T05:28:33;96930.63;;;9.23;50.38
61324;BME280;47203;48.428;11.974;2023-04-08T05:30:37;96933.78;;;9.25;50.37
61324;BME280;47203;48.428;11.974;2023-04-08T05:32:42;96931.69;;;9.27;50.46
61324;BME280;47203;48.428;11.974;2023-04-08T05:34:47;96934.06;;;9.29;50.67
61324;BME280;47203;48.428;11.974;2023-04-08T05:36:55;96942.22;;;9.27;50.75
61324;BME280;47203;48.428;11.974;2023-04-08T05:38:59;96934.84;;;9.24;50.61
61324;BME280;47203;48.428;11.974;2023-04-08T05:41:04;96939.06;;;9.25;50.64
61324;BME280;47203;48.428;11.974;2023-04-08T05:43:09;96936.44;;;9.25;50.95
61324;BME280;47203;48.428;11.974;2023-04-08T05:45:14;96928.28;;;9.26;50.89
61324;BME280;47203;48.428;11.974;2023-04-08T05:47:19;96936.69;;;9.29;50.83
61324;BME280;47203;48.428;11.974;2023-04-08T05:49:24;96940.66;;;9.31;50.81
61324;BME280;47203;48.428;11.974;2023-04-08T05:51:29;96938.84;;;9.32;50.72
61324;BME280;47203;48.428;11.974;2023-04-08T05:53:36;96945.69;;;9.33;51.24
61324;BME280;47203;48.428;11.974;2023-04-08T05:55:41;96933.34;;;9.33;50.77
61324;BME280;47203;48.428;11.974;2023-04-08T05:57:46;96939.91;;;9.36;51.13
61324;BME280;47203;48.428;11.974;2023-04-08T05:59:50;96941.50;;;9.37;50.91
61324;BME280;47203;48.428;11.974;2023-04-08T06:01:55;96946.50;;;9.38;51.03
61324;BME280;47203;48.428;11.974;2023-04-08T06:04:00;96952.31;;;9.40;51.21
61324;BME280;47203;48.428;11.974;2023-04-08T06:06:08;96954.69;;;9.42;51.34
61324;BME280;47203;48.428;11.974;2023-04-08T06:08:13;96963.91;;;9.44;50.99
61324;BME280;47203;48.428;11.974;2023-04-08T06:10:21;96964.44;;;9.47;51.23
61324;BME280;47203;48.428;11.974;2023-04-08T06:12:25;96979.47;;;9.51;51.17
61324;BME280;47203;48.428;11.974;2023-04-08T06:14:30;96976.88;;;9.56;50.93
61324;BME280;47203;48.428;11.974;2023-04-08T06:16:35;96976.38;;;9.59;51.16
61324;BME280;47203;48.428;11.974;2023-04-08T06:18:40;96973.00;;;9.64;51.22
61324;BME280;47203;48.428;11.974;2023-04-08T06:20:45;96979.59;;;9.67;51.11
61324;BME280;47203;48.428;11.974;2023-04-08T06:22:50;96977.78;;;9.72;51.06
61324;BME280;47203;48.428;11.974;2023-04-08T06:24:54;96980.19;;;9.74;51.22
61324;BME280;47203;48.428;11.974;2023-04-08T06:27:02;96985.97;;;9.76;51.45
61324;BME280;47203;48.428;11.974;2023-04-08T06:29:07;96983.88;;;9.78;51.11
61324;BME280;47203;48.428;11.974;2023-04-08T06:31:12;96987.84;;;9.81;51.01
61324;BME280;47203;48.428;11.974;2023-04-08T06:33:18;96985.72;;;9.83;51.32
61324;BME280;47203;48.428;11.974;2023-04-08T06:35:23;96989.16;;;9.83;51.05
61324;BME280;47203;48.428;11.974;2023-04-08T06:37:29;96986.28;;;9.85;51.10
61324;BME280;47203;48.428;11.974;2023-04-08T06:39:34;96987.06;;;9.85;51.08
61324;BME280;47203;48.428;11.974;2023-04-08T06:41:39;96992.06;;;9.87;51.20
61324;BME280;47203;48.428;11.974;2023-04-08T06:44:03;96981.56;;;9.87;51.29
61324;BME280;47203;48.428;11.974;2023-04-08T06:46:08;96989.44;;;9.87;51.10
61324;BME280;47203;48.428;11.974;2023-04-08T06:48:13;96994.44;;;9.88;51.29
61324;BME280;47203;48.428;11.974;2023-04-08T06:50:17;96996.03;;;9.89;51.11
61324;BME280;47203;48.428;11.974;2023-04-08T06:52:22;97002.91;;;9.90;51.08
61324;BME280;47203;48.428;11.974;2023-04-08T06:54:28;97001.84;;;9.91;51.14
61324;BME280;47203;48.428;11.974;2023-04-08T06:56:32;96993.16;;;9.91;51.22
61324;BME280;47203;48.428;11.974;2023-04-08T06:58:37;97004.25;;;9.93;51.02
61324;BME280;47203;48.428;11.974;2023-04-08T07:00:45;97011.06;;;9.94;51.25
61324;BME280;47203;48.428;11.974;2023-04-08T07:02:49;97011.38;;;9.98;51.35
61324;BME280;47203;48.428;11.974;2023-04-08T07:04:54;96997.16;;;9.99;51.03
61324;BME280;47203;48.428;11.974;2023-04-08T07:06:59;97007.19;;;10.02;51.10
61324;BME280;47203;48.428;11.974;2023-04-08T07:09:05;97006.13;;;10.03;51.20
61324;BME280;47203;48.428;11.974;2023-04-08T07:11:09;97002.19;;;10.05;51.03
61324;BME280;47203;48.428;11.974;2023-04-08T07:13:14;97009.84;;;10.07;50.84
61324;BME280;47203;48.428;11.974;2023-04-08T07:15:19;97016.94;;;10.06;51.03
61324;BME280;47203;48.428;11.974;2023-04-08T07:17:27;97011.69;;;10.06;51.20
61324;BME280;47203;48.428;11.974;2023-04-08T07:19:31;97018.50;;;10.07;51.08
61324;BME280;47203;48.428;11.974;2023-04-08T07:21:36;97025.34;;;10.08;50.94
61324;BME280;47203;48.428;11.974;2023-04-08T07:23:42;97019.06;;;10.09;50.94
61324;BME280;47203;48.428;11.974;2023-04-08T07:25:47;97024.06;;;10.11;51.07
61324;BME280;47203;48.428;11.974;2023-04-08T07:27:52;97032.50;;;10.13;50.96
61324;BME280;47203;48.428;11.974;2023-04-08T07:29:57;97023.56;;;10.14;51.24
61324;BME280;47203;48.428;11.974;2023-04-08T07:32:02;97015.41;;;10.16;50.84
61324;BME280;47203;48.428;11.974;2023-04-08T07:34:10;97021.72;;;10.14;50.74
61324;BME280;47203;48.428;11.974;2023-04-08T07:36:15;97025.41;;;10.13;50.69
61324;BME280;47203;48.428;11.974;2023-04-08T07:38:20;97021.19;;;10.12;50.70
61324;BME280;47203;48.428;11.974;2023-04-08T07:40:25;97021.19;;;10.12;50.57
61324;BME280;47203;48.428;11.974;2023-04-08T07:42:30;97026.97;;;10.14;50.63
61324;BME280;47203;48.428;11.974;2023-04-08T07:44:35;97023.31;;;10.16;50.53
61324;BME280;47203;48.428;11.974;2023-04-08T07:46:40;97023.84;;;10.18;50.61
61324;BME280;47203;48.428;11.974;2023-04-08T07:48:46;97022.78;;;10.19;50.24
61324;BME280;47203;48.428;11.974;2023-04-08T07:50:54;97025.16;;;10.20;50.70
61324;BME280;47203;48.428;11.974;2023-04-08T07:53:11;97019.66;;;10.22;50.51
61324;BME280;47203;48.428;11.974;2023-04-08T07:55:16;97027.03;;;10.25;50.28
61324;BME280;47203;48.428;11.974;2023-04-08T07:57:21;97019.69;;;10.27;50.19
61324;BME280;47203;48.428;11.974;2023-04-08T07:59:27;97031.31;;;10.31;49.94
61324;BME280;47203;48.428;11.974;2023-04-08T08:01:32;97026.56;;;10.33;49.97
61324;BME280;47203;48.428;11.974;2023-04-08T08:03:38;97030.56;;;10.36;49.58
61324;BME280;47203;48.428;11.974;2023-04-08T08:05:43;97025.03;;;10.37;49.65
61324;BME280;47203;48.428;11.974;2023-04-08T08:07:51;97033.22;;;10.41;49.42
61324;BME280;47203;48.428;11.974;2023-04-08T08:09:55;97033.75;;;10.43;49.53
61324;BME280;47203;48.428;11.974;2023-04-08T08:12:00;97039.56;;;10.45;49.47
61324;BME280;47203;48.428;11.974;2023-04-08T08:14:05;97034.03;;;10.46;49.42
61324;BME280;47203;48.428;11.974;2023-04-08T08:16:12;97033.53;;;10.50;49.33
61324;BME280;47203;48.428;11.974;2023-04-08T08:18:17;97029.84;;;10.51;49.36
61324;BME280;47203;48.428;11.974;2023-04-08T08:20:22;97027.75;;;10.53;49.42
61324;BME280;47203;48.428;11.974;2023-04-08T08:22:27;97031.97;;;10.54;49.38
61324;BME280;47203;48.428;11.974;2023-04-08T08:24:34;97029.06;;;10.55;49.47
61324;BME280;47203;48.428;11.974;2023-04-08T08:26:39;97027.00;;;10.57;49.12
61324;BME280;47203;48.428;11.974;2023-04-08T08:28:45;97030.41;;;10.58;49.50
61324;BME280;47203;48.428;11.974;2023-04-08T08:30:50;97029.91;;;10.61;49.40
61324;BME280;47203;48.428;11.974;2023-04-08T08:32:55;97025.16;;;10.63;49.22
61324;BME280;47203;48.428;11.974;2023-04-08T08:35:01;97033.34;;;10.67;49.50
61324;BME280;47203;48.428;11.974;2023-04-08T08:37:06;97037.56;;;10.68;49.18
61324;BME280;47203;48.428;11.974;2023-04-08T08:39:11;97035.47;;;10.70;49.39
61324;BME280;47203;48.428;11.974;2023-04-08T08:41:19;97034.94;;;10.73;49.27
61324;BME280;47203;48.428;11.974;2023-04-08T08:43:24;97040.50;;;10.76;49.38
61324;BME280;47203;48.428;11.974;2023-04-08T08:45:30;97032.34;;;10.78;49.05
61324;BME280;47203;48.428;11.974;2023-04-08T08:47:36;97034.72;;;10.79;49.21
61324;BME280;47203;48.428;11.974;2023-04-08T08:49:41;97037.88;;;10.81;49.03
61324;BME280;47203;48.428;11.974;2023-04-08T08:51:47;97037.88;;;10.81;49.12
61324;BME280;47203;48.428;11.974;2023-04-08T08:53:52;97040.25;;;10.83;49.06
61324;BME280;47203;48.428;11.974;2023-04-08T08:55:57;97044.47;;;10.84;49.07
61324;BME280;47203;48.428;11.974;2023-04-08T08:58:25;97050.53;;;10.85;49.07
61324;BME280;47203;48.428;11.974;2023-04-08T09:00:30;97048.44;;;10.87;49.14
61324;BME280;47203;48.428;11.974;2023-04-08T09:02:36;97062.41;;;10.87;49.26
61324;BME280;47203;48.428;11.974;2023-04-08T09:04:55;97064.25;;;10.87;49.11
61324;BME280;47203;48.428;11.974;2023-04-08T09:07:08;97066.31;;;10.85;49.07
61324;BME280;47203;48.428;11.974;2023-04-08T09:09:14;97063.94;;;10.78;49.35
61324;BME280;47203;48.428;11.974;2023-04-08T09:11:19;97074.47;;;10.78;49.07
61324;BME280;47203;48.428;11.974;2023-04-08T09:13:34;97074.72;;;10.76;49.38
61324;BME280;47203;48.428;11.974;2023-04-08T09:16:00;97075.78;;;10.75;49.22
61324;BME280;47203;48.428;11.974;2023-04-08T09:18:20;97077.88;;;10.73;49.35
61324;BME280;47203;48.428;11.974;2023-04-08T09:20:25;97084.19;;;10.72;49.20
61324;BME280;47203;48.428;11.974;2023-04-08T09:22:30;97078.38;;;10.70;49.26
61324;BME280;47203;48.428;11.974;2023-04-08T09:24:36;97077.06;;;10.68;49.02
61324;BME280;47203;48.428;11.974;2023-04-08T09:26:45;97082.59;;;10.66;49.46
61324;BME280;47203;48.428;11.974;2023-04-08T09:29:03;97084.41;;;10.65;49.63
61324;BME280;47203;48.428;11.974;2023-04-08T09:31:27;97083.88;;;10.63;49.60
61324;BME280;47203;48.428;11.974;2023-04-08T09:33:32;97086.50;;;10.63;49.62
61324;BME280;47203;48.428;11.974;2023-04-08T09:35:37;97083.06;;;10.63;49.70
61324;BME280;47203;48.428;11.974;2023-04-08T09:37:42;97089.16;;;10.63;49.57
61324;BME280;47203;48.428;11.974;2023-04-08T09:39:47;97089.16;;;10.63;49.52
61324;BME280;47203;48.428;11.974;2023-04-08T09:41:52;97089.16;;;10.63;49.37
61324;BME280;47203;48.428;11.974;2023-04-08T09:44:06;97082.28;;;10.62;49.80
61324;BME280;47203;48.428;11.974;2023-04-08T09:46:11;97089.16;;;10.63;49.67
61324;BME280;47203;48.428;11.974;2023-04-08T09:48:21;97084.13;;;10.62;49.68
61324;BME280;47203;48.428;11.974;2023-04-08T09:50:30;97085.19;;;10.61;49.79
61324;BME280;47203;48.428;11.974;2023-04-08T09:52:43;97092.03;;;10.62;49.66
61324;BME280;47203;48.428;11.974;2023-04-08T09:54:54;97091.22;;;10.61;49.64
61324;BME280;47203;48.428;11.974;2023-04-08T09:57:08;97088.59;;;10.61;49.72
61324;BME280;47203;48.428;11.974;2023-04-08T09:59:17;97094.66;;;10.62;49.79
61324;BME280;47203;48.428;11.974;2023-04-08T10:01:27;97104.38;;;10.61;49.90
61324;BME280;47203;48.428;11.974;2023-04-08T10:03:39;97104.38;;;10.61;49.65
61324;BME280;47203;48.428;11.974;2023-04-08T10:05:45;97107.81;;;10.62;49.88
61324;BME280;47203;48.428;11.974;2023-04-08T10:07:50;97107.00;;;10.61;49.87
61324;BME280;47203;48.428;11.974;2023-04-08T10:09:56;97107.81;;;10.62;49.55
61324;BME280;47203;48.428;11.974;2023-04-08T10:12:03;97104.38;;;10.61;49.95
61324;BME280;47203;48.428;11.974;2023-04-08T10:14:09;97105.97;;;10.62;49.57
61324;BME280;47203;48.428;11.974;2023-04-08T10:16:25;97109.38;;;10.63;49.60
61324;BME280;47203;48.428;11.974;2023-04-08T10:18:31;97106.75;;;10.63;49.65
61324;BME280;47203;48.428;11.974;2023-04-08T10:20:43;97101.50;;;10.63;49.65
61324;BME280;47203;48.428;11.974;2023-04-08T10:22:49;97109.38;;;10.63;49.63
61324;BME280;47203;48.428;11.974;2023-04-08T10:27:38;97113.09;;;10.62;49.72
61324;BME280;47203;48.428;11.974;2023-04-08T10:29:44;97110.47;;;10.62;49.61
61324;BME280;47203;48.428;11.974;2023-04-08T10:31:52;97112.84;;;10.63;49.33
61324;BME280;47203;48.428;11.974;2023-04-08T10:34:14;97117.06;;;10.64;49.89
61324;BME280;47203;48.428;11.974;2023-04-08T10:36:19;97114.44;;;10.64;49.54
61324;BME280;47203;48.428;11.974;2023-04-08T10:38:25;97114.16;;;10.66;49.44
61324;BME280;47203;48.428;11.974;2023-04-08T10:40:37;97114.16;;;10.66;49.85
61324;BME280;47203;48.428;11.974;2023-04-08T10:42:43;97108.09;;;10.65;49.73
61324;BME280;47203;48.428;11.974;2023-04-08T10:44:48;97112.31;;;10.67;49.67
61324;BME280;47203;48.428;11.974;2023-04-08T10:46:56;97114.97;;;10.67;49.35
61324;BME280;47203;48.428;11.974;2023-04-08T10:49:01;97117.59;;;10.67;49.45
61324;BME280;47203;48.428;11.974;2023-04-08T10:51:06;97108.66;;;10.68;49.56
61324;BME280;47203;48.428;11.974;2023-04-08T10:53:11;97107.59;;;10.69;49.59
61324;BME280;47203;48.428;11.974;2023-04-08T10:55:21;97106.81;;;10.68;49.53
61324;BME280;47203;48.428;11.974;2023-04-08T10:57:27;97102.31;;;10.69;49.40
61324;BME280;47203;48.428;11.974;2023-04-08T10:59:32;97105.50;;;10.71;49.54
61324;BME280;47203;48.428;11.974;2023-04-08T11:01:38;97104.69;;;10.70;49.54
61324;BME280;47203;48.428;11.974;2023-04-08T11:03:48;97108.13;;;10.71;49.54
61324;BME280;47203;48.428;11.974;2023-04-08T11:05:56;97107.88;;;10.72;49.46
61324;BME280;47203;48.428;11.974;2023-04-08T11:08:02;97108.66;;;10.73;49.34
61324;BME280;47203;48.428;11.974;2023-04-08T11:10:07;97107.63;;;10.74;49.51